sensor_id;sensor_type;location;lat;lon;timestamp;pressure;altitude;pressure_sealevel;temperature;humidity
26112;BME280;13829;48.990;8.346;2022-11-20T00:01:31;100041.94;;;6.58;100.00
26112;BME280;13829;48.990;8.346;2022-11-20T00:03:59;100036.84;;;6.68;100.00
26112;BME280;13829;48.990;8.346;2022-11-20T00:06:27;100041.50;;;6.88;100.00
26112;BME280;13829;48.990;8.346;2022-11-20T00:08:56;100045.81;;;6.88;100.00
26112;BME280;13829;48.990;8.346;2022-11-20T00:11:26;100038.66;;;6.73;100.00
26112;BME280;13829;48.990;8.346;2022-11-20T00:13:56;100042.91;;;6.66;100.00
26112;BME280;13829;48.990;8.346;2022-11-20T00:16:28;100042.19;;;6.76;100.00
26112;BME280;13829;48.990;8.346;2022-11-20T00:18:56;100050.13;;;6.84;100.00
26112;BME280;13829;48.990;8.346;2022-11-20T00:21:25;100046.63;;;6.80;100.00
26112;BME280;13829;48.990;8.346;2022-11-20T00:23:55;100038.28;;;7.09;100.00
26112;BME280;13829;48.990;8.346;2022-11-20T00:26:25;100045.13;;;6.99;100.00
26112;BME280;13829;48.990;8.346;2022-11-20T00:28:55;100039.28;;;7.19;100.00
26112;BME280;13829;48.990;8.346;2022-11-20T00:31:22;100039.38;;;7.27;100.00
26112;BME280;13829;48.990;8.346;2022-11-20T00:33:52;100045.50;;;7.27;100.00
26112;BME280;13829;48.990;8.346;2022-11-20T00:36:21;100039.28;;;7.17;100.00
26112;BME280;13829;48.990;8.346;2022-11-20T00:38:52;100047.03;;;7.13;100.00
26112;BME280;13829;48.990;8.346;2022-11-20T00:41:20;100050.31;;;6.96;100.00
26112;BME280;13829;48.990;8.346;2022-11-20T00:43:47;100042.47;;;6.98;100.00
26112;BME280;13829;48.990;8.346;2022-11-20T00:46:17;100045.41;;;7.21;100.00
26112;BME280;13829;48.990;8.346;2022-11-20T00:48:44;100043.56;;;7.11;100.00
26112;BME280;13829;48.990;8.346;2022-11-20T00:51:15;100046.06;;;7.03;100.00
26112;BME280;13829;48.990;8.346;2022-11-20T00:53:43;100044.06;;;6.85;100.00
26112;BME280;13829;48.990;8.346;2022-11-20T00:56:13;100036.16;;;6.80;100.00
26112;BME280;13829;48.990;8.346;2022-11-20T00:58:43;100039.75;;;6.90;100.00
26112;BME280;13829;48.990;8.346;2022-11-20T01:01:13;100037.41;;;7.10;100.00
26112;BME280;13829;48.990;8.346;2022-11-20T01:03:43;100033.88;;;7.05;100.00
26112;BME280;13829;48.990;8.346;2022-11-20T01:06:15;100027.81;;;7.08;100.00
26112;BME280;13829;48.990;8.346;2022-11-20T01:08:44;100038.88;;;6.88;100.00
26112;BME280;13829;48.990;8.346;2022-11-20T01:11:14;100036.94;;;6.76;100.00
26112;BME280;13829;48.990;8.346;2022-11-20T01:13:42;100028.56;;;6.99;100.00
26112;BME280;13829;48.990;8.346;2022-11-20T01:16:13;100033.66;;;6.88;100.00
26112;BME280;13829;48.990;8.346;2022-11-20T01:18:43;100039.72;;;6.87;100.00
26112;BME280;13829;48.990;8.346;2022-11-20T01:21:15;100036.34;;;6.94;100.00
26112;BME280;13829;48.990;8.346;2022-11-20T01:23:44;100040.41;;;6.74;100.00
26112;BME280;13829;48.990;8.346;2022-11-20T01:26:15;100036.28;;;6.88;100.00
26112;BME280;13829;48.990;8.346;2022-11-20T01:28:42;100032.91;;;6.98;100.00
26112;BME280;13829;48.990;8.346;2022-11-20T01:31:15;100030.41;;;7.08;100.00
26112;BME280;13829;48.990;8.346;2022-11-20T01:33:43;100033.09;;;7.12;100.00
26112;BME280;13829;48.990;8.346;2022-11-20T01:36:14;100032.34;;;7.21;100.00
26112;BME280;13829;48.990;8.346;2022-11-20T01:38:42;100035.13;;;7.35;100.00
26112;BME280;13829;48.990;8.346;2022-11-20T01:41:10;100021.38;;;7.53;100.00
26112;BME280;13829;48.990;8.346;2022-11-20T01:43:57;100022.13;;;7.41;100.00
26112;BME280;13829;48.990;8.346;2022-11-20T01:46:24;100016.75;;;7.30;100.00
26112;BME280;13829;48.990;8.346;2022-11-20T01:48:57;100025.44;;;7.26;100.00
26112;BME280;13829;48.990;8.346;2022-11-20T01:51:32;100018.38;;;7.21;100.00
26112;BME280;13829;48.990;8.346;2022-11-20T01:54:06;100016.75;;;7.32;100.00
26112;BME280;13829;48.990;8.346;2022-11-20T01:56:40;100021.91;;;7.23;100.00
26112;BME280;13829;48.990;8.346;2022-11-20T01:59:13;100013.09;;;7.14;100.00
26112;BME280;13829;48.990;8.346;2022-11-20T02:01:41;100018.34;;;7.17;100.00
26112;BME280;13829;48.990;8.346;2022-11-20T02:04:09;100013.13;;;7.21;100.00
26112;BME280;13829;48.990;8.346;2022-11-20T02:06:42;100016.81;;;7.37;100.00
26112;BME280;13829;48.990;8.346;2022-11-20T02:09:11;100016.84;;;7.38;100.00
26112;BME280;13829;48.990;8.346;2022-11-20T02:11:39;100019.53;;;7.44;100.00
26112;BME280;13829;48.990;8.346;2022-11-20T02:14:06;100016.28;;;7.65;100.00
26112;BME280;13829;48.990;8.346;2022-11-20T02:16:38;100014.66;;;7.78;100.00
26112;BME280;13829;48.990;8.346;2022-11-20T02:19:16;100013.03;;;7.91;100.00
26112;BME280;13829;48.990;8.346;2022-11-20T02:21:55;100013.09;;;7.97;100.00
26112;BME280;13829;48.990;8.346;2022-11-20T02:24:25;100020.22;;;8.11;100.00
26112;BME280;13829;48.990;8.346;2022-11-20T02:27:02;100012.31;;;8.09;100.00
26112;BME280;13829;48.990;8.346;2022-11-20T02:29:36;100019.41;;;8.20;100.00
26112;BME280;13829;48.990;8.346;2022-11-20T02:32:05;100013.44;;;8.41;100.00
26112;BME280;13829;48.990;8.346;2022-11-20T02:34:32;100020.44;;;8.39;100.00
26112;BME280;13829;48.990;8.346;2022-11-20T02:36:59;100013.41;;;8.31;100.00
26112;BME280;13829;48.990;8.346;2022-11-20T02:39:28;100015.19;;;8.39;100.00
26112;BME280;13829;48.990;8.346;2022-11-20T02:41:56;100016.00;;;8.31;100.00
26112;BME280;13829;48.990;8.346;2022-11-20T02:44:23;100013.41;;;8.31;100.00
26112;BME280;13829;48.990;8.346;2022-11-20T02:46:50;100014.41;;;8.46;100.00
26112;BME280;13829;48.990;8.346;2022-11-20T02:49:17;100009.91;;;8.36;100.00
26112;BME280;13829;48.990;8.346;2022-11-20T02:51:44;100003.00;;;8.44;100.00
26112;BME280;13829;48.990;8.346;2022-11-20T02:54:11;100002.91;;;8.31;100.00
26112;BME280;13829;48.990;8.346;2022-11-20T02:56:40;99999.53;;;8.45;100.00
26112;BME280;13829;48.990;8.346;2022-11-20T02:59:07;100002.97;;;8.41;100.00
26112;BME280;13829;48.990;8.346;2022-11-20T03:01:34;100004.72;;;8.39;100.00
26112;BME280;13829;48.990;8.346;2022-11-20T03:04:01;100007.34;;;8.43;100.00
26112;BME280;13829;48.990;8.346;2022-11-20T03:06:28;100003.91;;;8.46;100.00
26112;BME280;13829;48.990;8.346;2022-11-20T03:08:55;100006.56;;;8.47;100.00
26112;BME280;13829;48.990;8.346;2022-11-20T03:11:22;100007.34;;;8.39;100.00
26112;BME280;13829;48.990;8.346;2022-11-20T03:13:50;100013.53;;;8.47;100.00
26112;BME280;13829;48.990;8.346;2022-11-20T03:16:20;100003.94;;;8.49;100.00
26112;BME280;13829;48.990;8.346;2022-11-20T03:18:49;100006.63;;;8.55;100.00
26112;BME280;13829;48.990;8.346;2022-11-20T03:21:16;100005.78;;;8.62;100.00
26112;BME280;13829;48.990;8.346;2022-11-20T03:23:43;100006.59;;;8.52;100.00
26112;BME280;13829;48.990;8.346;2022-11-20T03:26:13;100001.38;;;8.58;100.00
26112;BME280;13829;48.990;8.346;2022-11-20T03:28:41;100001.34;;;8.49;100.00
26112;BME280;13829;48.990;8.346;2022-11-20T03:31:13;100004.69;;;8.36;100.00
26112;BME280;13829;48.990;8.346;2022-11-20T03:33:42;99995.19;;;8.48;100.00
26112;BME280;13829;48.990;8.346;2022-11-20T03:36:12;99993.47;;;8.47;100.00
26112;BME280;13829;48.990;8.346;2022-11-20T03:38:41;99996.09;;;8.54;100.00
26112;BME280;13829;48.990;8.346;2022-11-20T03:41:12;99996.91;;;8.45;100.00
26112;BME280;13829;48.990;8.346;2022-11-20T03:43:39;99996.97;;;8.51;100.00
26112;BME280;13829;48.990;8.346;2022-11-20T03:46:07;99996.09;;;8.52;100.00
26112;BME280;13829;48.990;8.346;2022-11-20T03:48:35;99990.00;;;8.53;100.00
26112;BME280;13829;48.990;8.346;2022-11-20T03:51:11;99990.84;;;8.52;100.00
26112;BME280;13829;48.990;8.346;2022-11-20T03:53:39;99996.13;;;8.58;100.00
26112;BME280;13829;48.990;8.346;2022-11-20T03:56:08;99986.38;;;8.40;100.00
26112;BME280;13829;48.990;8.346;2022-11-20T03:58:36;99986.47;;;8.46;100.00
26112;BME280;13829;48.990;8.346;2022-11-20T04:01:07;99993.34;;;8.40;100.00
26112;BME280;13829;48.990;8.346;2022-11-20T04:03:37;99988.16;;;8.41;100.00
26112;BME280;13829;48.990;8.346;2022-11-20T04:06:08;99989.03;;;8.45;100.00
26112;BME280;13829;48.990;8.346;2022-11-20T04:08:35;99985.66;;;8.57;100.00
26112;BME280;13829;48.990;8.346;2022-11-20T04:11:11;99983.88;;;8.53;100.00
26112;BME280;13829;48.990;8.346;2022-11-20T04:13:40;99986.50;;;8.57;100.00
26112;BME280;13829;48.990;8.346;2022-11-20T04:16:09;99986.50;;;8.57;100.00
26112;BME280;13829;48.990;8.346;2022-11-20T04:18:37;99997.72;;;8.38;100.00
26112;BME280;13829;48.990;8.346;2022-11-20T04:21:06;99997.84;;;8.50;100.00
26112;BME280;13829;48.990;8.346;2022-11-20T04:23:33;99993.47;;;8.47;100.00
26112;BME280;13829;48.990;8.346;2022-11-20T04:26:05;99995.22;;;8.50;100.00
26112;BME280;13829;48.990;8.346;2022-11-20T04:28:33;99996.13;;;8.55;100.00
26112;BME280;13829;48.990;8.346;2022-11-20T04:31:05;99996.09;;;8.49;100.00
26112;BME280;13829;48.990;8.346;2022-11-20T04:33:33;99993.44;;;8.46;100.00
26112;BME280;13829;48.990;8.346;2022-11-20T04:36:05;99990.84;;;8.52;100.00
26112;BME280;13829;48.990;8.346;2022-11-20T04:38:33;99990.00;;;8.56;100.00
26112;BME280;13829;48.990;8.346;2022-11-20T04:41:02;99987.38;;;8.50;100.00
26112;BME280;13829;48.990;8.346;2022-11-20T04:43:30;99985.63;;;8.52;100.00
26112;BME280;13829;48.990;8.346;2022-11-20T04:45:58;99979.59;;;8.65;100.00
26112;BME280;13829;48.990;8.346;2022-11-20T04:48:28;99989.09;;;8.48;100.00
26112;BME280;13829;48.990;8.346;2022-11-20T04:50:56;99993.50;;;8.57;100.00
26112;BME280;13829;48.990;8.346;2022-11-20T04:53:24;99990.06;;;8.64;100.00
26112;BME280;13829;48.990;8.346;2022-11-20T04:55:59;99985.53;;;8.44;100.00
26112;BME280;13829;48.990;8.346;2022-11-20T04:58:26;99990.03;;;8.59;100.00
26112;BME280;13829;48.990;8.346;2022-11-20T05:00:53;99986.44;;;8.45;100.00
26112;BME280;13829;48.990;8.346;2022-11-20T05:03:20;99985.59;;;8.49;100.00
26112;BME280;13829;48.990;8.346;2022-11-20T05:05:47;99989.13;;;8.54;100.00
26112;BME280;13829;48.990;8.346;2022-11-20T05:08:13;99983.94;;;8.60;100.00
26112;BME280;13829;48.990;8.346;2022-11-20T05:10:42;99984.75;;;8.52;100.00
26112;BME280;13829;48.990;8.346;2022-11-20T05:13:09;99984.81;;;8.62;100.00
26112;BME280;13829;48.990;8.346;2022-11-20T05:15:36;99982.13;;;8.53;100.00
26112;BME280;13829;48.990;8.346;2022-11-20T05:18:03;99980.44;;;8.64;100.00
26112;BME280;13829;48.990;8.346;2022-11-20T05:20:30;99977.78;;;8.60;100.00
26112;BME280;13829;48.990;8.346;2022-11-20T05:22:57;99970.91;;;8.76;100.00
26112;BME280;13829;48.990;8.346;2022-11-20T05:25:24;99975.22;;;8.64;100.00
26112;BME280;13829;48.990;8.346;2022-11-20T05:27:53;99975.13;;;8.49;100.00
26112;BME280;13829;48.990;8.346;2022-11-20T05:30:20;99976.88;;;8.53;100.00
26112;BME280;13829;48.990;8.346;2022-11-20T05:32:47;99978.56;;;8.45;100.00
26112;BME280;13829;48.990;8.346;2022-11-20T05:35:14;99975.91;;;8.39;100.00
26112;BME280;13829;48.990;8.346;2022-11-20T05:37:41;99970.78;;;8.54;100.00
26112;BME280;13829;48.990;8.346;2022-11-20T05:40:10;99976.00;;;8.49;100.00
26112;BME280;13829;48.990;8.346;2022-11-20T05:42:37;99973.31;;;8.45;100.00
26112;BME280;13829;48.990;8.346;2022-11-20T05:45:07;99973.41;;;8.56;100.00
26112;BME280;13829;48.990;8.346;2022-11-20T05:47:34;99965.53;;;8.53;100.00
26112;BME280;13829;48.990;8.346;2022-11-20T05:50:02;99969.75;;;8.37;100.00
26112;BME280;13829;48.990;8.346;2022-11-20T05:52:29;99961.16;;;8.50;100.00
26112;BME280;13829;48.990;8.346;2022-11-20T05:54:56;99963.69;;;8.42;100.00
26112;BME280;13829;48.990;8.346;2022-11-20T05:57:24;99975.97;;;8.46;100.00
26112;BME280;13829;48.990;8.346;2022-11-20T05:59:50;99964.56;;;8.43;100.00
26112;BME280;13829;48.990;8.346;2022-11-20T06:02:19;99971.63;;;8.50;100.00
26112;BME280;13829;48.990;8.346;2022-11-20T06:04:46;99971.56;;;8.44;100.00
26112;BME280;13829;48.990;8.346;2022-11-20T06:07:13;99967.25;;;8.51;100.00
26112;BME280;13829;48.990;8.346;2022-11-20T06:09:40;99963.75;;;8.47;100.00
26112;BME280;13829;48.990;8.346;2022-11-20T06:12:07;99973.22;;;8.32;100.00
26112;BME280;13829;48.990;8.346;2022-11-20T06:14:34;99961.16;;;8.56;100.00
26112;BME280;13829;48.990;8.346;2022-11-20T06:17:01;99968.97;;;8.47;100.00
26112;BME280;13829;48.990;8.346;2022-11-20T06:19:29;99968.09;;;8.45;100.00
26112;BME280;13829;48.990;8.346;2022-11-20T06:21:56;99968.13;;;8.48;100.00
26112;BME280;13829;48.990;8.346;2022-11-20T06:24:23;99965.50;;;8.49;100.00
26112;BME280;13829;48.990;8.346;2022-11-20T06:26:51;99974.25;;;8.52;100.00
26112;BME280;13829;48.990;8.346;2022-11-20T06:29:18;99976.81;;;8.44;100.00
26112;BME280;13829;48.990;8.346;2022-11-20T06:31:44;99977.63;;;8.40;100.00
26112;BME280;13829;48.990;8.346;2022-11-20T06:34:12;99973.22;;;8.32;100.00
26112;BME280;13829;48.990;8.346;2022-11-20T06:36:40;99974.91;;;8.24;100.00
26112;BME280;13829;48.990;8.346;2022-11-20T06:39:07;99969.72;;;8.27;100.00
26112;BME280;13829;48.990;8.346;2022-11-20T06:41:34;99973.25;;;8.36;100.00
26112;BME280;13829;48.990;8.346;2022-11-20T06:44:01;99964.47;;;8.30;100.00
26112;BME280;13829;48.990;8.346;2022-11-20T06:46:31;99977.56;;;8.30;100.00
26112;BME280;13829;48.990;8.346;2022-11-20T06:48:58;99979.38;;;8.36;100.00
26112;BME280;13829;48.990;8.346;2022-11-20T06:51:25;99976.81;;;8.44;100.00
26112;BME280;13829;48.990;8.346;2022-11-20T06:53:53;99982.13;;;8.50;100.00
26112;BME280;13829;48.990;8.346;2022-11-20T06:56:20;99988.22;;;8.47;100.00
26112;BME280;13829;48.990;8.346;2022-11-20T06:58:47;99981.19;;;8.45;100.00
26112;BME280;13829;48.990;8.346;2022-11-20T07:01:15;99996.09;;;8.49;100.00
26112;BME280;13829;48.990;8.346;2022-11-20T07:03:42;99992.47;;;8.38;100.00
26112;BME280;13829;48.990;8.346;2022-11-20T07:06:10;99990.84;;;8.49;100.00
26112;BME280;13829;48.990;8.346;2022-11-20T07:08:37;100002.09;;;8.42;100.00
26112;BME280;13829;48.990;8.346;2022-11-20T07:11:07;100002.91;;;8.33;100.00
26112;BME280;13829;48.990;8.346;2022-11-20T07:13:34;100006.53;;;8.46;100.00
26112;BME280;13829;48.990;8.346;2022-11-20T07:16:04;99999.56;;;8.48;100.00
26112;BME280;13829;48.990;8.346;2022-11-20T07:18:33;100005.69;;;8.48;100.00
26112;BME280;13829;48.990;8.346;2022-11-20T07:21:00;100008.25;;;8.44;100.00
26112;BME280;13829;48.990;8.346;2022-11-20T07:23:28;100005.72;;;8.52;100.00
26112;BME280;13829;48.990;8.346;2022-11-20T07:25:55;100005.59;;;8.41;100.00
26112;BME280;13829;48.990;8.346;2022-11-20T07:28:24;100009.97;;;8.42;100.00
26112;BME280;13829;48.990;8.346;2022-11-20T07:30:51;100000.34;;;8.39;100.00
26112;BME280;13829;48.990;8.346;2022-11-20T07:33:19;100011.69;;;8.37;100.00
26112;BME280;13829;48.990;8.346;2022-11-20T07:35:46;100017.91;;;8.48;100.00
26112;BME280;13829;48.990;8.346;2022-11-20T07:38:13;100015.16;;;8.36;100.00
26112;BME280;13829;48.990;8.346;2022-11-20T07:40:40;100011.72;;;8.43;100.00
26112;BME280;13829;48.990;8.346;2022-11-20T07:43:07;100010.09;;;8.54;100.00
26112;BME280;13829;48.990;8.346;2022-11-20T07:45:35;100022.22;;;8.41;100.00
26112;BME280;13829;48.990;8.346;2022-11-20T07:48:03;100011.63;;;8.30;100.00
26112;BME280;13829;48.990;8.346;2022-11-20T07:50:30;100019.53;;;8.35;100.00
26112;BME280;13829;48.990;8.346;2022-11-20T07:53:04;100016.94;;;8.40;100.00
26112;BME280;13829;48.990;8.346;2022-11-20T07:55:32;100018.81;;;8.50;100.00
26112;BME280;13829;48.990;8.346;2022-11-20T07:58:00;100019.59;;;8.44;100.00
26112;BME280;13829;48.990;8.346;2022-11-20T08:00:27;100026.63;;;8.48;100.00
26112;BME280;13829;48.990;8.346;2022-11-20T08:02:55;100029.25;;;8.47;100.00
26112;BME280;13829;48.990;8.346;2022-11-20T08:05:22;100032.78;;;8.49;100.00
26112;BME280;13829;48.990;8.346;2022-11-20T08:07:49;100036.25;;;8.48;100.00
26112;BME280;13829;48.990;8.346;2022-11-20T08:10:16;100036.28;;;8.51;100.00
26112;BME280;13829;48.990;8.346;2022-11-20T08:12:45;100040.66;;;8.54;100.00
26112;BME280;13829;48.990;8.346;2022-11-20T08:15:30;100038.06;;;8.58;100.00
26112;BME280;13829;48.990;8.346;2022-11-20T08:18:05;100045.13;;;8.69;100.00
26112;BME280;13829;48.990;8.346;2022-11-20T08:20:34;100049.41;;;8.57;100.00
26112;BME280;13829;48.990;8.346;2022-11-20T08:23:04;100051.19;;;8.57;100.00
26112;BME280;13829;48.990;8.346;2022-11-20T08:25:33;100043.31;;;8.55;100.00
26112;BME280;13829;48.990;8.346;2022-11-20T08:28:01;100044.22;;;8.63;100.00
26112;BME280;13829;48.990;8.346;2022-11-20T08:30:30;100059.03;;;8.57;100.00
26112;BME280;13829;48.990;8.346;2022-11-20T08:33:03;100055.56;;;8.58;100.00
26112;BME280;13829;48.990;8.346;2022-11-20T08:35:33;100059.97;;;8.63;100.00
26112;BME280;13829;48.990;8.346;2022-11-20T08:38:01;100066.78;;;8.44;100.00
26112;BME280;13829;48.990;8.346;2022-11-20T08:40:28;100060.75;;;8.50;100.00
26112;BME280;13829;48.990;8.346;2022-11-20T08:42:55;100065.19;;;8.65;100.00
26112;BME280;13829;48.990;8.346;2022-11-20T08:45:23;100065.25;;;8.70;100.00
26112;BME280;13829;48.990;8.346;2022-11-20T08:47:50;100060.00;;;8.67;100.00
26112;BME280;13829;48.990;8.346;2022-11-20T08:50:18;100061.81;;;8.78;100.00
26112;BME280;13829;48.990;8.346;2022-11-20T08:52:45;100068.81;;;8.82;100.00
26112;BME280;13829;48.990;8.346;2022-11-20T08:55:12;100070.59;;;8.80;100.00
26112;BME280;13829;48.990;8.346;2022-11-20T08:57:39;100070.59;;;8.80;100.00
26112;BME280;13829;48.990;8.346;2022-11-20T09:00:09;100070.59;;;8.80;100.00
26112;BME280;13829;48.990;8.346;2022-11-20T09:02:37;100073.25;;;8.88;100.00
26112;BME280;13829;48.990;8.346;2022-11-20T09:05:04;100078.47;;;8.85;100.00
26112;BME280;13829;48.990;8.346;2022-11-20T09:07:33;100075.84;;;8.85;100.00
26112;BME280;13829;48.990;8.346;2022-11-20T09:10:00;100078.44;;;8.84;100.00
26112;BME280;13829;48.990;8.346;2022-11-20T09:12:27;100085.41;;;8.77;100.00
26112;BME280;13829;48.990;8.346;2022-11-20T09:14:54;100081.13;;;8.88;100.00
26112;BME280;13829;48.990;8.346;2022-11-20T09:17:21;100087.22;;;8.90;100.00
26112;BME280;13829;48.990;8.346;2022-11-20T09:19:48;100097.72;;;8.90;100.00
26112;BME280;13829;48.990;8.346;2022-11-20T09:22:15;100085.50;;;8.94;100.00
26112;BME280;13829;48.990;8.346;2022-11-20T09:24:43;100086.47;;;9.07;100.00
26112;BME280;13829;48.990;8.346;2022-11-20T09:27:10;100097.81;;;9.03;100.00
26112;BME280;13829;48.990;8.346;2022-11-20T09:29:37;100099.47;;;8.91;100.00
26112;BME280;13829;48.990;8.346;2022-11-20T09:32:05;100098.66;;;9.02;100.00
26112;BME280;13829;48.990;8.346;2022-11-20T09:34:32;100101.25;;;8.94;100.00
26112;BME280;13829;48.990;8.346;2022-11-20T09:36:59;100093.31;;;8.83;100.00
26112;BME280;13829;48.990;8.346;2022-11-20T09:39:26;100103.00;;;8.93;100.00
26112;BME280;13829;48.990;8.346;2022-11-20T09:42:29;100096.00;;;8.89;100.00
26112;BME280;13829;48.990;8.346;2022-11-20T09:45:21;100105.53;;;8.81;100.00
26112;BME280;13829;48.990;8.346;2022-11-20T09:48:18;100105.44;;;8.69;100.00
26112;BME280;13829;48.990;8.346;2022-11-20T09:50:55;100104.53;;;8.63;100.00
26112;BME280;13829;48.990;8.346;2022-11-20T09:53:32;100110.72;;;8.73;100.00
26112;BME280;13829;48.990;8.346;2022-11-20T09:56:04;100110.72;;;8.73;100.00
26112;BME280;13829;48.990;8.346;2022-11-20T09:58:39;100115.13;;;8.76;100.00
26112;BME280;13829;48.990;8.346;2022-11-20T10:01:12;100109.91;;;8.84;100.00
26112;BME280;13829;48.990;8.346;2022-11-20T10:03:54;100103.78;;;8.80;100.00
26112;BME280;13829;48.990;8.346;2022-11-20T10:06:29;100118.63;;;8.78;100.00
26112;BME280;13829;48.990;8.346;2022-11-20T10:09:08;100104.75;;;8.94;100.00
26112;BME280;13829;48.990;8.346;2022-11-20T10:11:53;100108.25;;;8.93;100.00
26112;BME280;13829;48.990;8.346;2022-11-20T10:14:38;100106.53;;;8.98;100.00
26112;BME280;13829;48.990;8.346;2022-11-20T10:17:18;100101.34;;;9.08;100.00
26112;BME280;13829;48.990;8.346;2022-11-20T10:20:06;100103.19;;;9.20;100.00
26112;BME280;13829;48.990;8.346;2022-11-20T10:22:54;100098.09;;;9.55;100.00
26112;BME280;13829;48.990;8.346;2022-11-20T10:25:37;100093.78;;;9.67;100.00
26112;BME280;13829;48.990;8.346;2022-11-20T10:28:30;100084.19;;;9.81;100.00
26112;BME280;13829;48.990;8.346;2022-11-20T10:31:08;100080.69;;;9.85;100.00
26112;BME280;13829;48.990;8.346;2022-11-20T10:33:41;100079.84;;;9.97;100.00
26112;BME280;13829;48.990;8.346;2022-11-20T10:36:19;100083.28;;;9.79;100.00
26112;BME280;13829;48.990;8.346;2022-11-20T10:38:54;100078.00;;;9.71;100.00
26112;BME280;13829;48.990;8.346;2022-11-20T10:41:27;100070.13;;;9.67;100.00
26112;BME280;13829;48.990;8.346;2022-11-20T10:44:05;100068.38;;;9.69;100.00
26112;BME280;13829;48.990;8.346;2022-11-20T10:46:40;100064.91;;;9.73;100.00
26112;BME280;13829;48.990;8.346;2022-11-20T10:49:14;100064.00;;;9.74;100.00
26112;BME280;13829;48.990;8.346;2022-11-20T10:51:58;100059.59;;;9.63;100.00
26112;BME280;13829;48.990;8.346;2022-11-20T10:54:39;100056.09;;;9.58;100.00
26112;BME280;13829;48.990;8.346;2022-11-20T10:57:25;100053.44;;;9.52;100.00
26112;BME280;13829;48.990;8.346;2022-11-20T11:00:05;100052.66;;;9.72;100.00
26112;BME280;13829;48.990;8.346;2022-11-20T11:02:39;100048.28;;;9.82;100.00
26112;BME280;13829;48.990;8.346;2022-11-20T11:05:25;100040.44;;;9.97;100.00
26112;BME280;13829;48.990;8.346;2022-11-20T11:07:55;100044.84;;;10.14;100.00
26112;BME280;13829;48.990;8.346;2022-11-20T11:10:32;100043.09;;;10.31;100.00
26112;BME280;13829;48.990;8.346;2022-11-20T11:13:01;100041.34;;;10.33;100.00
26112;BME280;13829;48.990;8.346;2022-11-20T11:15:37;100026.47;;;10.27;100.00
26112;BME280;13829;48.990;8.346;2022-11-20T11:18:09;100012.44;;;10.32;100.00
26112;BME280;13829;48.990;8.346;2022-11-20T11:20:37;100017.69;;;10.41;100.00
26112;BME280;13829;48.990;8.346;2022-11-20T11:23:04;100019.47;;;10.42;100.00
26112;BME280;13829;48.990;8.346;2022-11-20T11:25:34;100014.22;;;10.40;100.00
26112;BME280;13829;48.990;8.346;2022-11-20T11:28:17;100000.16;;;10.27;99.52
26112;BME280;13829;48.990;8.346;2022-11-20T11:30:46;100009.81;;;10.08;100.00
26112;BME280;13829;48.990;8.346;2022-11-20T11:33:22;100013.28;;;9.96;100.00
26112;BME280;13829;48.990;8.346;2022-11-20T11:35:53;100004.50;;;9.91;100.00
26112;BME280;13829;48.990;8.346;2022-11-20T11:38:32;100007.16;;;9.88;100.00
26112;BME280;13829;48.990;8.346;2022-11-20T11:41:01;100000.16;;;10.04;100.00
26112;BME280;13829;48.990;8.346;2022-11-20T11:43:33;99996.66;;;10.13;100.00
26112;BME280;13829;48.990;8.346;2022-11-20T11:46:30;99989.63;;;10.31;98.88
26112;BME280;13829;48.990;8.346;2022-11-20T11:49:01;99984.38;;;10.31;100.00
26112;BME280;13829;48.990;8.346;2022-11-20T11:52:00;99981.75;;;10.26;98.84
26112;BME280;13829;48.990;8.346;2022-11-20T11:54:35;99977.38;;;10.23;98.36
26112;BME280;13829;48.990;8.346;2022-11-20T11:57:11;99980.00;;;10.16;98.21
26112;BME280;13829;48.990;8.346;2022-11-20T11:59:57;99974.78;;;10.36;99.67
26112;BME280;13829;48.990;8.346;2022-11-20T12:02:36;99975.66;;;10.44;98.28
26112;BME280;13829;48.990;8.346;2022-11-20T12:05:18;99963.34;;;10.62;96.44
26112;BME280;13829;48.990;8.346;2022-11-20T12:07:51;99974.72;;;10.76;94.73
26112;BME280;13829;48.990;8.346;2022-11-20T12:10:35;99969.41;;;10.85;91.32
26112;BME280;13829;48.990;8.346;2022-11-20T12:13:20;99969.44;;;10.81;88.95
26112;BME280;13829;48.990;8.346;2022-11-20T12:15:48;99967.66;;;10.86;88.09
26112;BME280;13829;48.990;8.346;2022-11-20T12:18:19;99972.94;;;10.76;87.03
26112;BME280;13829;48.990;8.346;2022-11-20T12:21:02;99975.59;;;10.78;83.82
26112;BME280;13829;48.990;8.346;2022-11-20T12:23:42;99969.47;;;10.64;84.02
26112;BME280;13829;48.990;8.346;2022-11-20T12:26:40;99980.88;;;10.55;83.44
26112;BME280;13829;48.990;8.346;2022-11-20T12:29:25;99970.41;;;10.44;84.73
26112;BME280;13829;48.990;8.346;2022-11-20T12:32:53;99977.38;;;10.28;84.29
26112;BME280;13829;48.990;8.346;2022-11-20T12:35:44;99975.63;;;10.32;84.14
26112;BME280;13829;48.990;8.346;2022-11-20T12:41:51;99974.75;;;10.26;79.64
26112;BME280;13829;48.990;8.346;2022-11-20T12:45:10;99976.53;;;10.06;78.76
26112;BME280;13829;48.990;8.346;2022-11-20T12:57:23;99964.22;;;10.23;78.30
26112;BME280;13829;48.990;8.346;2022-11-20T13:00:13;99966.00;;;10.17;76.69
26112;BME280;13829;48.990;8.346;2022-11-20T13:06:13;99967.75;;;9.81;79.31
26112;BME280;13829;48.990;8.346;2022-11-20T13:08:47;99961.63;;;9.83;78.74
26112;BME280;13829;48.990;8.346;2022-11-20T13:11:24;99948.50;;;9.97;77.57
26112;BME280;13829;48.990;8.346;2022-11-20T13:14:14;99944.09;;;10.19;77.64
26112;BME280;13829;48.990;8.346;2022-11-20T13:16:53;99934.44;;;10.46;77.98
26112;BME280;13829;48.990;8.346;2022-11-20T13:19:22;99928.22;;;10.81;76.78
26112;BME280;13829;48.990;8.346;2022-11-20T13:21:50;99931.72;;;10.80;72.23
26112;BME280;13829;48.990;8.346;2022-11-20T13:24:24;99935.22;;;10.84;73.07
26112;BME280;13829;48.990;8.346;2022-11-20T13:27:17;99938.75;;;10.75;71.20
26112;BME280;13829;48.990;8.346;2022-11-20T13:29:59;99936.97;;;10.85;71.17
26112;BME280;13829;48.990;8.346;2022-11-20T13:32:27;99938.75;;;10.75;72.01